createdAt,value
2018-09-13T00:00:21.240Z,1017.37
2018-09-13T00:01:21.244Z,1017.39
2018-09-13T00:02:21.242Z,1017.38
2018-09-13T00:03:21.234Z,1017.34
2018-09-13T00:04:21.227Z,1017.37
2018-09-13T00:05:21.221Z,1017.35
2018-09-13T00:06:21.220Z,1017.32
2018-09-13T00:07:21.216Z,1017.28
2018-09-13T00:08:21.209Z,1017.27
2018-09-13T00:09:21.214Z,1017.21
2018-09-13T00:10:21.208Z,1017.18
2018-09-13T00:11:21.207Z,1017.18
2018-09-13T00:12:21.184Z,1017.17
2018-09-13T00:13:21.204Z,1017.15
2018-09-13T00:14:21.185Z,1017.18
2018-09-13T00:15:21.183Z,1017.15
2018-09-13T00:16:21.171Z,1017.17
2018-09-13T00:17:21.163Z,1017.13
2018-09-13T00:18:21.175Z,1017.10
2018-09-13T00:19:21.166Z,1017.10
2018-09-13T00:20:21.174Z,1017.09
2018-09-13T00:21:21.146Z,1017.09
2018-09-13T00:22:21.151Z,1017.14
2018-09-13T00:23:21.155Z,1017.13
2018-09-13T00:24:21.146Z,1017.16
2018-09-13T00:25:21.135Z,1017.16
2018-09-13T00:26:21.127Z,1017.13
2018-09-13T00:27:21.125Z,1017.13
2018-09-13T00:28:21.123Z,1017.17
2018-09-13T00:29:21.124Z,1017.21
2018-09-13T00:30:21.110Z,1017.22
2018-09-13T00:31:21.111Z,1017.26
2018-09-13T00:32:21.104Z,1017.24
2018-09-13T00:33:21.112Z,1017.24
2018-09-13T00:34:21.092Z,1017.22
2018-09-13T00:35:21.094Z,1017.27
2018-09-13T00:36:21.078Z,1017.23
2018-09-13T00:37:21.075Z,1017.26
2018-09-13T00:38:21.075Z,1017.27
2018-09-13T00:39:21.068Z,1017.28
2018-09-13T00:40:21.066Z,1017.25
2018-09-13T00:41:21.071Z,1017.26
2018-09-13T00:42:21.060Z,1017.24
2018-09-13T00:43:21.068Z,1017.24
2018-09-13T00:44:21.056Z,1017.25
2018-09-13T00:45:21.036Z,1017.22
2018-09-13T00:46:21.046Z,1017.25
2018-09-13T00:47:21.042Z,1017.28
2018-09-13T00:48:21.035Z,1017.29
2018-09-13T00:49:21.023Z,1017.29
2018-09-13T00:50:21.038Z,1017.30
2018-09-13T00:51:21.021Z,1017.31
2018-09-13T00:52:21.018Z,1017.33
2018-09-13T00:53:21.022Z,1017.32
2018-09-13T00:54:21.001Z,1017.35
2018-09-13T00:55:21.011Z,1017.38
2018-09-13T00:56:20.989Z,1017.37
2018-09-13T00:57:20.988Z,1017.37
2018-09-13T00:58:20.970Z,1017.31
2018-09-13T00:59:20.985Z,1017.31
2018-09-13T01:00:20.974Z,1017.33
2018-09-13T01:01:20.967Z,1017.27
2018-09-13T01:02:20.965Z,1017.26
2018-09-13T01:03:20.966Z,1017.25
2018-09-13T01:04:20.950Z,1017.28
2018-09-13T01:05:20.958Z,1017.29
2018-09-13T01:06:20.948Z,1017.28
2018-09-13T01:07:20.952Z,1017.30
2018-09-13T01:08:20.941Z,1017.27
2018-09-13T01:09:20.936Z,1017.31
2018-09-13T01:10:20.925Z,1017.26
2018-09-13T01:11:20.927Z,1017.24
2018-09-13T01:12:20.920Z,1017.22
2018-09-13T01:13:20.921Z,1017.23
2018-09-13T01:14:20.917Z,1017.22
2018-09-13T01:15:20.907Z,1017.21
2018-09-13T01:16:20.901Z,1017.17
2018-09-13T01:17:20.901Z,1017.15
2018-09-13T01:18:20.897Z,1017.15
2018-09-13T01:19:20.896Z,1017.21
2018-09-13T01:20:20.897Z,1017.20
2018-09-13T01:21:20.882Z,1017.19
2018-09-13T01:22:20.883Z,1017.20
2018-09-13T01:23:20.876Z,1017.16
2018-09-13T01:24:20.880Z,1017.14
2018-09-13T01:25:20.861Z,1017.12
2018-09-13T01:26:20.862Z,1017.11
2018-09-13T01:27:20.853Z,1017.13
2018-09-13T01:28:20.847Z,1017.16
2018-09-13T01:29:20.844Z,1017.17
2018-09-13T01:30:20.845Z,1017.16
2018-09-13T01:31:20.832Z,1017.12
2018-09-13T01:32:20.831Z,1017.07
2018-09-13T01:33:20.828Z,1017.06
2018-09-13T01:34:20.832Z,1017.04
2018-09-13T01:35:20.811Z,1017.03
2018-09-13T01:36:20.818Z,1017.01
2018-09-13T01:37:20.814Z,1017.02
2018-09-13T01:38:20.799Z,1017.01
2018-09-13T01:39:20.794Z,1016.98
2018-09-13T01:40:20.799Z,1016.99
2018-09-13T01:41:20.796Z,1016.98
2018-09-13T01:42:20.783Z,1016.98
2018-09-13T01:43:20.773Z,1016.95
2018-09-13T01:44:20.784Z,1016.93
2018-09-13T01:45:20.783Z,1016.90
2018-09-13T01:46:20.766Z,1016.85
2018-09-13T01:47:20.758Z,1016.86
2018-09-13T01:48:20.756Z,1016.83
2018-09-13T01:49:20.753Z,1016.81
2018-09-13T01:50:20.749Z,1016.79
2018-09-13T01:51:20.746Z,1016.83
2018-09-13T01:52:20.741Z,1016.77
2018-09-13T01:53:20.727Z,1016.78
2018-09-13T01:54:20.742Z,1016.81
2018-09-13T01:55:20.735Z,1016.83
2018-09-13T01:56:20.728Z,1016.83
2018-09-13T01:57:20.712Z,1016.81
2018-09-13T01:58:20.709Z,1016.80
2018-09-13T01:59:20.723Z,1016.79
2018-09-13T02:00:20.712Z,1016.77
2018-09-13T02:01:20.693Z,1016.75
2018-09-13T02:02:20.695Z,1016.71
2018-09-13T02:03:20.692Z,1016.70
2018-09-13T02:04:20.681Z,1016.65
2018-09-13T02:05:20.684Z,1016.67
2018-09-13T02:06:20.682Z,1016.67
2018-09-13T02:07:20.682Z,1016.65
2018-09-13T02:08:20.674Z,1016.68
2018-09-13T02:09:20.669Z,1016.67
2018-09-13T02:10:20.658Z,1016.65
2018-09-13T02:11:20.662Z,1016.66
2018-09-13T02:12:20.652Z,1016.63
2018-09-13T02:13:20.651Z,1016.58
2018-09-13T02:14:20.638Z,1016.58
2018-09-13T02:15:20.635Z,1016.57
2018-09-13T02:16:20.632Z,1016.58
2018-09-13T02:17:20.633Z,1016.56
2018-09-13T02:18:20.631Z,1016.57
2018-09-13T02:19:20.617Z,1016.56
2018-09-13T02:20:20.617Z,1016.53
2018-09-13T02:21:20.609Z,1016.51
2018-09-13T02:22:20.607Z,1016.50
2018-09-13T02:23:20.596Z,1016.53
2018-09-13T02:24:20.597Z,1016.58
2018-09-13T02:25:20.582Z,1016.54
2018-09-13T02:26:20.599Z,1016.55
2018-09-13T02:27:20.583Z,1016.58
2018-09-13T02:28:20.589Z,1016.50
2018-09-13T02:29:20.576Z,1016.51
2018-09-13T02:30:20.567Z,1016.51
2018-09-13T02:31:20.583Z,1016.50
2018-09-13T02:32:20.555Z,1016.53
2018-09-13T02:33:20.563Z,1016.56
2018-09-13T02:34:20.547Z,1016.59
2018-09-13T02:35:20.542Z,1016.62
2018-09-13T02:36:20.544Z,1016.64
2018-09-13T02:37:20.539Z,1016.59
2018-09-13T02:38:20.522Z,1016.61
2018-09-13T02:39:20.525Z,1016.58
2018-09-13T02:40:20.516Z,1016.57
2018-09-13T02:41:20.518Z,1016.59
2018-09-13T02:42:20.516Z,1016.56
2018-09-13T02:43:20.519Z,1016.52
2018-09-13T02:44:20.504Z,1016.49
2018-09-13T02:45:20.505Z,1016.49
2018-09-13T02:46:20.503Z,1016.48
2018-09-13T02:47:20.498Z,1016.45
2018-09-13T02:48:20.502Z,1016.44
2018-09-13T02:49:20.556Z,1016.39
2018-09-13T02:50:20.474Z,1016.43
2018-09-13T02:51:20.475Z,1016.44
2018-09-13T02:52:20.463Z,1016.48
2018-09-13T02:53:20.470Z,1016.51
2018-09-13T02:54:20.498Z,1016.55
2018-09-13T02:55:20.445Z,1016.56
2018-09-13T02:56:20.452Z,1016.58
2018-09-13T02:57:20.443Z,1016.60
2018-09-13T02:58:20.438Z,1016.58
2018-09-13T02:59:20.430Z,1016.54
2018-09-13T03:00:20.438Z,1016.55
2018-09-13T03:01:20.428Z,1016.53
2018-09-13T03:02:20.438Z,1016.53
2018-09-13T03:03:20.421Z,1016.50
2018-09-13T03:04:20.399Z,1016.56
2018-09-13T03:05:20.402Z,1016.56
2018-09-13T03:06:20.403Z,1016.56
2018-09-13T03:07:20.419Z,1016.54
2018-09-13T03:08:20.434Z,1016.53
2018-09-13T03:09:20.397Z,1016.53
2018-09-13T03:10:20.378Z,1016.56
2018-09-13T03:11:20.382Z,1016.52
2018-09-13T03:12:20.392Z,1016.55
2018-09-13T03:13:20.372Z,1016.54
2018-09-13T03:14:20.392Z,1016.51
2018-09-13T03:15:20.372Z,1016.51
2018-09-13T03:16:20.359Z,1016.47
2018-09-13T03:17:20.353Z,1016.42
2018-09-13T03:18:20.351Z,1016.45
2018-09-13T03:19:20.345Z,1016.43
2018-09-13T03:20:20.339Z,1016.45
2018-09-13T03:21:20.330Z,1016.41
2018-09-13T03:22:20.332Z,1016.41
2018-09-13T03:23:20.324Z,1016.43
2018-09-13T03:24:20.328Z,1016.42
2018-09-13T03:25:20.317Z,1016.41
2018-09-13T03:26:20.314Z,1016.42
2018-09-13T03:27:20.313Z,1016.43
2018-09-13T03:28:20.310Z,1016.37
2018-09-13T03:29:20.290Z,1016.40
2018-09-13T03:30:20.298Z,1016.33
2018-09-13T03:31:20.297Z,1016.33
2018-09-13T03:32:20.289Z,1016.29
2018-09-13T03:33:20.277Z,1016.28
2018-09-13T03:34:20.274Z,1016.25
2018-09-13T03:35:20.268Z,1016.22
2018-09-13T03:36:20.273Z,1016.18
2018-09-13T03:37:20.283Z,1016.15
2018-09-13T03:38:20.254Z,1016.15
2018-09-13T03:39:20.250Z,1016.14
2018-09-13T03:40:20.248Z,1016.15
2018-09-13T03:41:20.258Z,1016.12
2018-09-13T03:42:20.239Z,1016.11
2018-09-13T03:43:20.245Z,1016.12
2018-09-13T03:44:20.232Z,1016.09
2018-09-13T03:45:20.219Z,1016.12
2018-09-13T03:46:20.215Z,1016.09
2018-09-13T03:47:20.214Z,1016.10
2018-09-13T03:48:20.209Z,1016.11
2018-09-13T03:49:20.205Z,1016.15
2018-09-13T03:50:20.197Z,1016.19
2018-09-13T03:51:20.185Z,1016.20
2018-09-13T03:52:20.185Z,1016.22
2018-09-13T03:53:20.184Z,1016.29
2018-09-13T03:54:20.180Z,1016.25
2018-09-13T03:55:20.227Z,1016.30
2018-09-13T03:56:20.184Z,1016.28
2018-09-13T03:57:20.189Z,1016.34
2018-09-13T03:58:20.163Z,1016.35
2018-09-13T03:59:20.155Z,1016.38
2018-09-13T04:00:20.153Z,1016.45
2018-09-13T04:01:20.153Z,1016.44
2018-09-13T04:02:20.140Z,1016.44
2018-09-13T04:03:20.192Z,1016.41
2018-09-13T04:04:20.141Z,1016.44
2018-09-13T04:05:20.129Z,1016.43
2018-09-13T04:06:20.120Z,1016.44
2018-09-13T04:07:20.135Z,1016.42
2018-09-13T04:08:20.131Z,1016.41
2018-09-13T04:09:20.145Z,1016.41
2018-09-13T04:10:20.136Z,1016.35
2018-09-13T04:11:20.111Z,1016.39
2018-09-13T04:12:20.098Z,1016.36
2018-09-13T04:13:20.093Z,1016.35
2018-09-13T04:14:20.086Z,1016.35
2018-09-13T04:15:20.094Z,1016.40
2018-09-13T04:16:20.081Z,1016.38
2018-09-13T04:17:20.078Z,1016.39
2018-09-13T04:18:20.078Z,1016.40
2018-09-13T04:19:20.074Z,1016.37
2018-09-13T04:20:20.064Z,1016.36
2018-09-13T04:21:20.069Z,1016.36
2018-09-13T04:22:20.055Z,1016.36
2018-09-13T04:23:20.056Z,1016.38
2018-09-13T04:24:20.040Z,1016.40
2018-09-13T04:25:20.046Z,1016.43
2018-09-13T04:26:20.038Z,1016.42
2018-09-13T04:27:20.025Z,1016.47
2018-09-13T04:28:20.024Z,1016.40
2018-09-13T04:29:20.024Z,1016.43
2018-09-13T04:30:20.017Z,1016.44
2018-09-13T04:31:20.020Z,1016.43
2018-09-13T04:32:20.009Z,1016.47
2018-09-13T04:33:19.998Z,1016.47
2018-09-13T04:34:19.994Z,1016.43
2018-09-13T04:35:20.001Z,1016.43
2018-09-13T04:36:19.981Z,1016.42
2018-09-13T04:37:19.994Z,1016.40
2018-09-13T04:38:19.984Z,1016.44
2018-09-13T04:39:19.971Z,1016.41
2018-09-13T04:40:19.987Z,1016.41
2018-09-13T04:41:19.971Z,1016.42
2018-09-13T04:42:19.965Z,1016.39
2018-09-13T04:43:19.962Z,1016.38
2018-09-13T04:44:19.951Z,1016.35
2018-09-13T04:45:19.948Z,1016.40
2018-09-13T04:46:19.946Z,1016.38
2018-09-13T04:47:19.945Z,1016.39
2018-09-13T04:48:19.935Z,1016.42
2018-09-13T04:49:20.022Z,1016.45
2018-09-13T04:50:19.930Z,1016.47
2018-09-13T04:51:19.920Z,1016.51
2018-09-13T04:52:19.923Z,1016.48
2018-09-13T04:53:19.917Z,1016.47
2018-09-13T04:54:19.917Z,1016.46
2018-09-13T04:55:19.910Z,1016.49
2018-09-13T04:56:19.899Z,1016.44
2018-09-13T04:57:19.904Z,1016.49
2018-09-13T04:58:19.882Z,1016.49
2018-09-13T04:59:19.885Z,1016.51
2018-09-13T05:00:19.894Z,1016.51
2018-09-13T05:01:19.881Z,1016.48
2018-09-13T05:02:19.891Z,1016.48
2018-09-13T05:03:19.862Z,1016.46
2018-09-13T05:04:19.860Z,1016.48
2018-09-13T05:05:19.861Z,1016.47
2018-09-13T05:06:19.851Z,1016.49
2018-09-13T05:07:19.854Z,1016.47
2018-09-13T05:08:19.845Z,1016.50
2018-09-13T05:09:19.837Z,1016.49
2018-09-13T05:10:19.835Z,1016.45
2018-09-13T05:11:19.827Z,1016.44
2018-09-13T05:12:19.825Z,1016.45
2018-09-13T05:13:19.821Z,1016.44
2018-09-13T05:14:19.817Z,1016.38
2018-09-13T05:15:19.807Z,1016.41
2018-09-13T05:16:19.807Z,1016.43
2018-09-13T05:17:19.807Z,1016.44
2018-09-13T05:18:19.807Z,1016.47
2018-09-13T05:19:19.794Z,1016.50
2018-09-13T05:20:19.787Z,1016.47
2018-09-13T05:21:19.783Z,1016.49
2018-09-13T05:22:19.775Z,1016.50
2018-09-13T05:23:19.803Z,1016.52
2018-09-13T05:24:19.828Z,1016.48
2018-09-13T05:25:19.769Z,1016.48
2018-09-13T05:26:19.765Z,1016.49
2018-09-13T05:27:19.758Z,1016.51
2018-09-13T05:28:19.746Z,1016.49
2018-09-13T05:29:19.756Z,1016.52
2018-09-13T05:30:19.741Z,1016.53
2018-09-13T05:31:19.734Z,1016.54
2018-09-13T05:32:19.736Z,1016.57
2018-09-13T05:33:19.727Z,1016.56
2018-09-13T05:34:19.724Z,1016.55
2018-09-13T05:35:19.720Z,1016.56
2018-09-13T05:36:19.730Z,1016.54
2018-09-13T05:37:19.715Z,1016.54
2018-09-13T05:38:19.710Z,1016.56
2018-09-13T05:39:19.697Z,1016.58
2018-09-13T05:40:19.710Z,1016.61
2018-09-13T05:41:19.693Z,1016.66
2018-09-13T05:42:19.701Z,1016.65
2018-09-13T05:43:19.690Z,1016.66
2018-09-13T05:44:19.673Z,1016.66
2018-09-13T05:45:19.670Z,1016.67
2018-09-13T05:46:19.674Z,1016.69
2018-09-13T05:47:19.669Z,1016.69
2018-09-13T05:48:19.661Z,1016.67
2018-09-13T05:49:19.650Z,1016.69
2018-09-13T05:50:19.640Z,1016.69
2018-09-13T05:51:19.667Z,1016.74
2018-09-13T05:52:19.635Z,1016.70
2018-09-13T05:53:19.633Z,1016.71
2018-09-13T05:54:19.630Z,1016.70
2018-09-13T05:55:19.623Z,1016.70
2018-09-13T05:56:19.612Z,1016.71
2018-09-13T05:57:19.618Z,1016.67
2018-09-13T05:58:19.635Z,1016.68
2018-09-13T05:59:19.611Z,1016.68
2018-09-13T06:00:19.607Z,1016.71
2018-09-13T06:01:19.608Z,1016.72
2018-09-13T06:02:19.590Z,1016.70
2018-09-13T06:03:19.593Z,1016.69
2018-09-13T06:04:19.578Z,1016.70
2018-09-13T06:05:19.573Z,1016.70
2018-09-13T06:06:19.573Z,1016.71
2018-09-13T06:07:19.567Z,1016.72
2018-09-13T06:08:19.560Z,1016.72
2018-09-13T06:09:19.562Z,1016.70
2018-09-13T06:10:19.566Z,1016.73
2018-09-13T06:11:19.556Z,1016.69
2018-09-13T06:12:19.541Z,1016.71
2018-09-13T06:13:19.564Z,1016.70
2018-09-13T06:14:19.537Z,1016.72
2018-09-13T06:15:19.530Z,1016.67
2018-09-13T06:16:19.526Z,1016.68
2018-09-13T06:17:19.527Z,1016.69
2018-09-13T06:18:19.517Z,1016.69
2018-09-13T06:19:19.512Z,1016.71
2018-09-13T06:20:19.526Z,1016.73
2018-09-13T06:21:19.513Z,1016.71
2018-09-13T06:22:19.500Z,1016.70
2018-09-13T06:23:19.491Z,1016.73
2018-09-13T06:24:19.485Z,1016.71
2018-09-13T06:25:19.486Z,1016.71
2018-09-13T06:26:19.481Z,1016.73
2018-09-13T06:27:19.471Z,1016.71
2018-09-13T06:28:19.471Z,1016.72
2018-09-13T06:29:19.473Z,1016.70
2018-09-13T06:30:19.461Z,1016.74
2018-09-13T06:31:19.462Z,1016.70
2018-09-13T06:32:19.455Z,1016.73
2018-09-13T06:33:19.442Z,1016.70
2018-09-13T06:34:19.438Z,1016.72
2018-09-13T06:35:19.437Z,1016.73
2018-09-13T06:36:19.480Z,1016.73
2018-09-13T06:37:19.433Z,1016.77
2018-09-13T06:38:19.462Z,1016.78
2018-09-13T06:39:19.422Z,1016.79
2018-09-13T06:40:19.413Z,1016.77
2018-09-13T06:41:19.411Z,1016.78
2018-09-13T06:42:19.411Z,1016.81
2018-09-13T06:43:19.393Z,1016.78
2018-09-13T06:44:19.409Z,1016.80
2018-09-13T06:45:19.391Z,1016.77
2018-09-13T06:46:19.405Z,1016.78
2018-09-13T06:47:19.376Z,1016.85
2018-09-13T06:48:19.380Z,1016.82
2018-09-13T06:49:19.377Z,1016.82
2018-09-13T06:50:19.372Z,1016.79
2018-09-13T06:51:19.362Z,1016.79
2018-09-13T06:52:19.363Z,1016.77
2018-09-13T06:53:19.368Z,1016.76
2018-09-13T06:54:19.352Z,1016.72
2018-09-13T06:55:19.348Z,1016.73
2018-09-13T06:56:19.339Z,1016.73
2018-09-13T06:57:19.344Z,1016.75
2018-09-13T06:58:19.332Z,1016.75
2018-09-13T06:59:19.324Z,1016.75
2018-09-13T07:00:19.333Z,1016.80
2018-09-13T07:01:19.328Z,1016.79
2018-09-13T07:02:19.350Z,1016.82
2018-09-13T07:03:19.312Z,1016.82
2018-09-13T07:04:19.317Z,1016.81
2018-09-13T07:05:19.298Z,1016.82
2018-09-13T07:06:19.307Z,1016.87
2018-09-13T07:07:19.297Z,1016.88
2018-09-13T07:08:19.293Z,1016.88
2018-09-13T07:09:19.277Z,1016.87
2018-09-13T07:10:19.286Z,1016.87
2018-09-13T07:11:19.262Z,1016.90
2018-09-13T07:12:19.292Z,1016.88
2018-09-13T07:13:19.313Z,1016.86
2018-09-13T07:14:19.264Z,1016.83
2018-09-13T07:15:19.255Z,1016.84
2018-09-13T07:16:19.238Z,1016.85
2018-09-13T07:17:19.248Z,1016.84
2018-09-13T07:18:19.249Z,1016.84
2018-09-13T07:19:19.249Z,1016.83
2018-09-13T07:20:19.228Z,1016.84
2018-09-13T07:21:19.222Z,1016.87
2018-09-13T07:22:19.223Z,1016.87
2018-09-13T07:23:19.224Z,1016.86
2018-09-13T07:24:19.213Z,1016.86
2018-09-13T07:25:19.206Z,1016.84
2018-09-13T07:26:19.197Z,1016.82
2018-09-13T07:27:19.202Z,1016.86
2018-09-13T07:28:19.183Z,1016.90
2018-09-13T07:29:19.185Z,1016.89
2018-09-13T07:30:19.189Z,1016.93
2018-09-13T07:31:19.182Z,1016.92
2018-09-13T07:32:19.168Z,1016.95
2018-09-13T07:33:19.168Z,1016.92
2018-09-13T07:34:19.163Z,1016.91
2018-09-13T07:35:19.172Z,1016.94
2018-09-13T07:36:19.182Z,1016.94
2018-09-13T07:37:19.155Z,1016.93
2018-09-13T07:38:19.144Z,1016.92
2018-09-13T07:39:19.133Z,1016.93
2018-09-13T07:40:19.132Z,1016.96
2018-09-13T07:41:19.133Z,1016.97
2018-09-13T07:42:19.182Z,1017.00
2018-09-13T07:43:19.116Z,1017.00
2018-09-13T07:44:19.123Z,1017.02
2018-09-13T07:45:19.109Z,1016.99
2018-09-13T07:46:19.112Z,1016.99
2018-09-13T07:47:19.123Z,1017.01
2018-09-13T07:48:19.104Z,1017.04
2018-09-13T07:49:19.096Z,1017.03
2018-09-13T07:50:19.093Z,1017.08
2018-09-13T07:51:19.090Z,1017.08
2018-09-13T07:52:19.080Z,1017.03
2018-09-13T07:53:19.073Z,1017.07
2018-09-13T07:54:19.076Z,1017.08
2018-09-13T07:55:19.072Z,1017.07
2018-09-13T07:56:19.067Z,1017.07
2018-09-13T07:57:19.051Z,1017.05
2018-09-13T07:58:19.052Z,1017.08
2018-09-13T07:59:19.052Z,1017.05
2018-09-13T08:00:19.043Z,1017.07
2018-09-13T08:01:19.037Z,1017.04
2018-09-13T08:02:19.032Z,1017.02
2018-09-13T08:03:19.029Z,1017.00
2018-09-13T08:04:19.025Z,1017.02
2018-09-13T08:05:19.025Z,1017.05
2018-09-13T08:06:19.015Z,1017.04
2018-09-13T08:07:19.018Z,1017.01
2018-09-13T08:08:18.998Z,1017.01
2018-09-13T08:09:19.002Z,1017.04
2018-09-13T08:10:18.995Z,1017.05
2018-09-13T08:11:18.987Z,1017.05
2018-09-13T08:12:19.055Z,1017.05
2018-09-13T08:13:18.983Z,1017.05
2018-09-13T08:14:18.985Z,1017.09
2018-09-13T08:15:18.969Z,1017.10
2018-09-13T08:16:18.960Z,1017.12
2018-09-13T08:17:18.964Z,1017.14
2018-09-13T08:18:18.982Z,1017.12
2018-09-13T08:19:18.959Z,1017.09
2018-09-13T08:20:18.948Z,1017.08
2018-09-13T08:21:18.983Z,1017.07
2018-09-13T08:22:18.939Z,1017.05
2018-09-13T08:23:18.929Z,1017.09
2018-09-13T08:24:18.934Z,1017.07
2018-09-13T08:25:18.939Z,1017.13
2018-09-13T08:26:18.925Z,1017.10
2018-09-13T08:27:18.949Z,1017.10
2018-09-13T08:28:18.924Z,1017.13
2018-09-13T08:29:18.908Z,1017.14
2018-09-13T08:30:18.908Z,1017.13
2018-09-13T08:31:18.894Z,1017.18
2018-09-13T08:32:18.895Z,1017.21
2018-09-13T08:33:18.927Z,1017.23
2018-09-13T08:34:18.882Z,1017.24
2018-09-13T08:35:18.886Z,1017.24
2018-09-13T08:36:18.882Z,1017.26
2018-09-13T08:37:18.885Z,1017.24
2018-09-13T08:38:18.859Z,1017.26
2018-09-13T08:39:18.860Z,1017.24
2018-09-13T08:40:18.873Z,1017.25
2018-09-13T08:41:18.852Z,1017.26
2018-09-13T08:42:18.845Z,1017.28
2018-09-13T08:43:18.834Z,1017.30
2018-09-13T08:44:18.838Z,1017.28
2018-09-13T08:45:18.830Z,1017.26
2018-09-13T08:46:18.835Z,1017.20
2018-09-13T08:47:18.823Z,1017.23
2018-09-13T08:48:18.817Z,1017.22
2018-09-13T08:49:18.810Z,1017.19
2018-09-13T08:50:18.799Z,1017.19
2018-09-13T08:51:18.808Z,1017.24
2018-09-13T08:52:18.795Z,1017.26
2018-09-13T08:53:18.820Z,1017.29
2018-09-13T08:54:18.790Z,1017.29
2018-09-13T08:55:18.852Z,1017.26
2018-09-13T08:56:18.779Z,1017.27
2018-09-13T08:57:18.770Z,1017.30
2018-09-13T08:58:18.790Z,1017.30
2018-09-13T08:59:18.769Z,1017.29
2018-09-13T09:00:18.764Z,1017.33
2018-09-13T09:01:18.755Z,1017.29
2018-09-13T09:02:18.774Z,1017.24
2018-09-13T09:03:18.748Z,1017.31
2018-09-13T09:04:18.743Z,1017.31
2018-09-13T09:05:18.753Z,1017.31
2018-09-13T09:06:18.748Z,1017.32
2018-09-13T09:07:18.729Z,1017.32
2018-09-13T09:08:18.733Z,1017.34
2018-09-13T09:09:18.718Z,1017.33
2018-09-13T09:10:18.717Z,1017.32
2018-09-13T09:11:18.715Z,1017.35
2018-09-13T09:12:18.704Z,1017.36
2018-09-13T09:13:18.703Z,1017.32
2018-09-13T09:14:18.712Z,1017.37
2018-09-13T09:15:18.695Z,1017.37
2018-09-13T09:16:18.694Z,1017.33
2018-09-13T09:17:18.680Z,1017.34
2018-09-13T09:18:18.688Z,1017.33
2018-09-13T09:19:18.689Z,1017.33
2018-09-13T09:20:18.673Z,1017.31
2018-09-13T09:21:18.665Z,1017.34
2018-09-13T09:22:18.662Z,1017.35
2018-09-13T09:23:18.653Z,1017.34
2018-09-13T09:24:18.641Z,1017.34
2018-09-13T09:25:18.648Z,1017.35
2018-09-13T09:26:18.641Z,1017.31
2018-09-13T09:27:18.631Z,1017.31
2018-09-13T09:28:18.650Z,1017.31
2018-09-13T09:29:18.675Z,1017.28
2018-09-13T09:30:18.616Z,1017.25
2018-09-13T09:31:18.613Z,1017.28
2018-09-13T09:32:18.650Z,1017.28
2018-09-13T09:33:18.604Z,1017.25
2018-09-13T09:34:18.599Z,1017.27
2018-09-13T09:35:18.596Z,1017.31
2018-09-13T09:36:18.594Z,1017.29
2018-09-13T09:37:18.584Z,1017.29
2018-09-13T09:38:18.584Z,1017.31
2018-09-13T09:39:18.588Z,1017.32
2018-09-13T09:40:18.571Z,1017.33
2018-09-13T09:41:18.574Z,1017.35
2018-09-13T09:42:18.582Z,1017.35
2018-09-13T09:43:18.564Z,1017.31
2018-09-13T09:44:18.626Z,1017.31
2018-09-13T09:45:18.551Z,1017.30
2018-09-13T09:46:18.550Z,1017.32
2018-09-13T09:47:18.546Z,1017.33
2018-09-13T09:48:18.551Z,1017.34
2018-09-13T09:49:18.529Z,1017.37
2018-09-13T09:50:18.531Z,1017.34
2018-09-13T09:51:18.519Z,1017.34
2018-09-13T09:52:18.559Z,1017.35
2018-09-13T09:53:18.515Z,1017.36
2018-09-13T09:54:18.524Z,1017.36
2018-09-13T09:55:18.497Z,1017.39
2018-09-13T09:56:18.490Z,1017.37
2018-09-13T09:57:18.496Z,1017.42
2018-09-13T09:58:18.506Z,1017.40
2018-09-13T09:59:18.494Z,1017.43
2018-09-13T10:00:18.483Z,1017.40
2018-09-13T10:01:18.486Z,1017.38
2018-09-13T10:02:18.470Z,1017.41
2018-09-13T10:03:18.529Z,1017.42
2018-09-13T10:04:18.460Z,1017.41
2018-09-13T10:05:18.464Z,1017.42
2018-09-13T10:06:18.450Z,1017.38
2018-09-13T10:07:18.450Z,1017.37
2018-09-13T10:08:18.450Z,1017.40
2018-09-13T10:09:18.439Z,1017.38
2018-09-13T10:10:18.435Z,1017.38
2018-09-13T10:11:18.439Z,1017.35
2018-09-13T10:12:18.428Z,1017.36
2018-09-13T10:13:18.424Z,1017.35
2018-09-13T10:14:18.433Z,1017.33
2018-09-13T10:15:18.417Z,1017.34
2018-09-13T10:16:18.432Z,1017.34
2018-09-13T10:17:18.401Z,1017.35
2018-09-13T10:18:18.401Z,1017.35
2018-09-13T10:19:18.405Z,1017.35
2018-09-13T10:20:18.386Z,1017.36
2018-09-13T10:21:18.376Z,1017.35
2018-09-13T10:22:18.381Z,1017.34
2018-09-13T10:23:18.376Z,1017.34
2018-09-13T10:24:18.388Z,1017.37
2018-09-13T10:25:18.361Z,1017.36
2018-09-13T10:26:18.359Z,1017.36
2018-09-13T10:27:18.350Z,1017.38
2018-09-13T10:28:18.347Z,1017.38
2018-09-13T10:29:18.406Z,1017.43
2018-09-13T10:30:18.341Z,1017.43
2018-09-13T10:31:18.332Z,1017.42
2018-09-13T10:32:18.336Z,1017.48
2018-09-13T10:33:18.347Z,1017.43
2018-09-13T10:34:18.316Z,1017.44
2018-09-13T10:35:18.320Z,1017.43
2018-09-13T10:36:18.315Z,1017.44
2018-09-13T10:37:18.302Z,1017.44
2018-09-13T10:38:18.305Z,1017.41
2018-09-13T10:39:18.296Z,1017.41
2018-09-13T10:40:18.300Z,1017.40
2018-09-13T10:41:18.285Z,1017.36
2018-09-13T10:42:18.286Z,1017.38
2018-09-13T10:43:18.292Z,1017.38
2018-09-13T10:44:18.271Z,1017.41
2018-09-13T10:45:18.306Z,1017.37
2018-09-13T10:46:18.266Z,1017.45
2018-09-13T10:47:18.298Z,1017.41
2018-09-13T10:48:18.258Z,1017.40
2018-09-13T10:49:18.253Z,1017.44
2018-09-13T10:50:18.301Z,1017.43
2018-09-13T10:51:18.250Z,1017.43
2018-09-13T10:52:18.301Z,1017.40
2018-09-13T10:53:18.241Z,1017.44
2018-09-13T10:54:18.274Z,1017.41
2018-09-13T10:55:18.240Z,1017.38
2018-09-13T10:56:18.218Z,1017.35
2018-09-13T10:57:18.222Z,1017.36
2018-09-13T10:58:18.218Z,1017.31
2018-09-13T10:59:18.280Z,1017.29
2018-09-13T11:00:18.203Z,1017.28
2018-09-13T11:01:18.195Z,1017.31
2018-09-13T11:02:18.193Z,1017.28
2018-09-13T11:03:18.186Z,1017.27
2018-09-13T11:04:18.224Z,1017.29
2018-09-13T11:05:18.200Z,1017.33
2018-09-13T11:06:18.167Z,1017.31
2018-09-13T11:07:18.172Z,1017.30
2018-09-13T11:08:18.177Z,1017.32
2018-09-13T11:09:18.165Z,1017.35
2018-09-13T11:10:18.152Z,1017.33
2018-09-13T11:11:18.222Z,1017.36
2018-09-13T11:12:18.142Z,1017.34
2018-09-13T11:13:18.138Z,1017.35
2018-09-13T11:14:18.135Z,1017.34
2018-09-13T11:15:18.136Z,1017.34
2018-09-13T11:16:18.143Z,1017.33
2018-09-13T11:17:18.116Z,1017.34
2018-09-13T11:18:18.122Z,1017.34
2018-09-13T11:19:18.136Z,1017.36
2018-09-13T11:20:18.116Z,1017.35
2018-09-13T11:21:18.127Z,1017.36
2018-09-13T11:22:18.092Z,1017.36
2018-09-13T11:23:18.096Z,1017.32
2018-09-13T11:24:18.094Z,1017.34
2018-09-13T11:25:18.083Z,1017.34
2018-09-13T11:26:18.075Z,1017.34
2018-09-13T11:27:18.077Z,1017.33
2018-09-13T11:28:18.061Z,1017.30
2018-09-13T11:29:18.068Z,1017.28
2018-09-13T11:30:18.056Z,1017.30
2018-09-13T11:31:18.047Z,1017.25
2018-09-13T11:32:18.054Z,1017.24
2018-09-13T11:33:18.057Z,1017.23
2018-09-13T11:34:18.058Z,1017.18
2018-09-13T11:35:18.048Z,1017.23
2018-09-13T11:36:18.039Z,1017.24
2018-09-13T11:37:18.025Z,1017.24
2018-09-13T11:38:18.017Z,1017.24
2018-09-13T11:39:18.007Z,1017.22
2018-09-13T11:40:18.051Z,1017.22
2018-09-13T11:41:18.010Z,1017.20
2018-09-13T11:42:18.006Z,1017.22
2018-09-13T11:43:18.030Z,1017.25
2018-09-13T11:44:17.987Z,1017.26
2018-09-13T11:45:17.988Z,1017.24
2018-09-13T11:46:17.991Z,1017.29
2018-09-13T11:47:17.983Z,1017.27
2018-09-13T11:48:17.987Z,1017.26
2018-09-13T11:49:17.987Z,1017.27
2018-09-13T11:50:17.967Z,1017.29
2018-09-13T11:51:17.976Z,1017.27
2018-09-13T11:52:17.965Z,1017.30
2018-09-13T11:53:17.955Z,1017.29
2018-09-13T11:54:17.946Z,1017.30
2018-09-13T11:55:17.941Z,1017.31
2018-09-13T11:56:17.944Z,1017.28
2018-09-13T11:57:17.930Z,1017.31
2018-09-13T11:58:17.937Z,1017.30
2018-09-13T11:59:17.926Z,1017.28
2018-09-13T12:00:17.943Z,1017.22
2018-09-13T12:01:18.018Z,1017.25
2018-09-13T12:02:17.912Z,1017.23
2018-09-13T12:03:17.914Z,1017.24
2018-09-13T12:04:17.912Z,1017.19
2018-09-13T12:05:17.896Z,1017.27